Seberi, Brazil
Current Conditions -  °F | °C
As of 12:30 AM on Sunday 23 Nov 2014 (Local Time) from SBCH Reporting Station
Clear Clear  
Wind Chill: 64°   Ceiling: Unl
Heat Index: 64°   Visibility: 6mi
Dew Point: 48°   Wind: 0mph
Humidity: 56%   Direction: NA
Pressure: 29.97"   Gusts: NA
Location:  27.48°S, 53.4°W
Report Text: SBCH 230230Z 00000KT CAVOK 18/09 Q1015
Loading
Personal Weather Stations






























Interactive Weather Map New forecast layout! Learn more

10-Day Weather Forecast

Advertisements
Track Severe Weather on mobile